Time;durP1;ratioP1;P1;durP2;ratioP2;P2;SDS_P1;SDS_P2;PMS_P1;PMS_P2;Temp;Humidity;BMP_temperature;BMP_pressure;BME280_temperature;BME280_humidity;BME280_pressure;Samples;Min_cycle;Max_cycle;Signal;HPM_P1;HPM_P2
2023/11/19 06:57:36;;;;;;;21.33;7.47;;;;;;;;;;5253273;23;20501;-89
2023/11/19 07:00:05;;;;;;;19.90;5.90;;;;;;;;;;4969445;28;20457;-88
2023/11/19 07:02:31;;;;;;;21.37;5.67;;;;;;;;;;4966419;28;20557;-87
2023/11/19 07:04:58;;;;;;;18.47;6.13;;;;;;;;;;4927335;28;20552;-87
2023/11/19 07:07:24;;;;;;;23.50;7.07;;;;;;;;;;4965692;28;20472;-89
2023/11/19 07:09:51;;;;;;;22.70;6.27;;;;;;;;;;4968952;28;21056;-92
2023/11/19 07:15:02;;;;;;;20.90;5.60;;;;;;;;;;4486327;23;20490;-85
2023/11/19 07:17:28;;;;;;;27.70;6.90;;;;;;;;;;4985300;28;20534;-84
2023/11/19 07:19:54;;;;;;;24.47;7.40;;;;;;;;;;4983845;28;20448;-86
2023/11/19 07:22:21;;;;;;;22.27;7.20;;;;;;;;;;4989917;28;20459;-86
2023/11/19 07:24:47;;;;;;;20.97;7.40;;;;;;;;;;4988863;28;20499;-85
2023/11/19 07:27:14;;;;;;;30.27;6.93;;;;;;;;;;4988453;28;21052;-85
2023/11/19 07:29:40;;;;;;;28.20;7.83;;;;;;;;;;4983092;28;20495;-85
2023/11/19 07:32:08;;;;;;;21.97;6.40;;;;;;;;;;4987472;28;20994;-84
2023/11/19 07:34:35;;;;;;;25.20;5.77;;;;;;;;;;4986517;28;20488;-85
2023/11/19 07:37:02;;;;;;;28.00;6.13;;;;;;;;;;4990162;28;20460;-85
2023/11/19 07:39:28;;;;;;;26.23;5.93;;;;;;;;;;4989662;28;20506;-86
2023/11/19 07:41:55;;;;;;;19.93;5.80;;;;;;;;;;4992076;28;21168;-86
2023/11/19 07:44:22;;;;;;;12.13;5.80;;;;;;;;;;4990468;28;20511;-85
2023/11/19 07:46:48;;;;;;;21.53;5.80;;;;;;;;;;4987160;28;20495;-85
2023/11/19 07:49:16;;;;;;;24.57;5.50;;;;;;;;;;4991943;28;20484;-85
2023/11/19 07:51:43;;;;;;;23.03;6.27;;;;;;;;;;4985571;28;20963;-87
2023/11/19 07:54:09;;;;;;;23.43;5.30;;;;;;;;;;4983889;28;20478;-85
2023/11/19 07:56:36;;;;;;;33.53;7.17;;;;;;;;;;4986297;28;20459;-85
2023/11/19 07:59:02;;;;;;;27.40;5.30;;;;;;;;;;4988888;28;20459;-87
2023/11/19 08:01:29;;;;;;;21.33;4.93;;;;;;;;;;4984895;28;20491;-85
2023/11/19 08:03:55;;;;;;;25.00;5.90;;;;;;;;;;4989698;28;20475;-83
2023/11/19 08:06:23;;;;;;;29.20;6.20;;;;;;;;;;4994663;28;20451;-86
2023/11/19 08:08:49;;;;;;;27.40;6.03;;;;;;;;;;4993397;28;20527;-86
2023/11/19 08:11:16;;;;;;;26.23;6.10;;;;;;;;;;4995532;28;20545;-85
2023/11/19 08:13:43;;;;;;;31.37;6.17;;;;;;;;;;4995825;28;20462;-84
2023/11/19 08:16:09;;;;;;;22.20;5.77;;;;;;;;;;4992390;28;21092;-84
2023/11/19 08:18:35;;;;;;;15.10;5.80;;;;;;;;;;4997278;28;20447;-84
2023/11/19 08:21:04;;;;;;;18.77;4.33;;;;;;;;;;4991420;28;20448;-84
2023/11/19 08:23:33;;;;;;;19.07;6.33;;;;;;;;;;4997456;28;20550;-87
2023/11/19 08:25:59;;;;;;;28.23;5.87;;;;;;;;;;4993732;28;20452;-86
2023/11/19 08:28:26;;;;;;;20.17;6.20;;;;;;;;;;4990440;28;20509;-86
2023/11/19 08:30:52;;;;;;;24.57;5.33;;;;;;;;;;4987023;28;20971;-86
2023/11/19 08:33:19;;;;;;;19.27;5.90;;;;;;;;;;4996251;28;20551;-88
2023/11/19 08:35:47;;;;;;;17.10;6.13;;;;;;;;;;4990062;28;20500;-87
2023/11/19 08:38:13;;;;;;;32.97;5.00;;;;;;;;;;4992093;28;20452;-86
2023/11/19 08:40:41;;;;;;;22.20;6.13;;;;;;;;;;4991965;28;20547;-85
2023/11/19 08:43:07;;;;;;;25.80;6.97;;;;;;;;;;4988643;28;20555;-85
2023/11/19 08:45:34;;;;;;;21.50;6.50;;;;;;;;;;4985151;28;20456;-82
2023/11/19 08:48:00;;;;;;;25.10;5.10;;;;;;;;;;4999672;28;20455;-83
2023/11/19 08:50:26;;;;;;;24.80;6.40;;;;;;;;;;5001472;28;20555;-83
2023/11/19 08:52:53;;;;;;;20.10;4.77;;;;;;;;;;4983919;28;20529;-83
2023/11/19 08:55:19;;;;;;;15.20;5.20;;;;;;;;;;4986244;28;20587;-87
2023/11/19 08:57:47;;;;;;;16.40;5.40;;;;;;;;;;4992630;28;20480;-84
2023/11/19 09:00:15;;;;;;;21.33;5.07;;;;;;;;;;4993743;28;20491;-84
2023/11/19 09:02:42;;;;;;;25.40;6.40;;;;;;;;;;4992430;28;20468;-85
2023/11/19 09:05:09;;;;;;;24.50;5.93;;;;;;;;;;4992656;28;20502;-86
2023/11/19 09:07:35;;;;;;;24.77;5.30;;;;;;;;;;4993831;28;20479;-86
2023/11/19 09:10:04;;;;;;;20.83;5.07;;;;;;;;;;4989182;28;20492;-85
2023/11/19 09:12:31;;;;;;;14.80;4.97;;;;;;;;;;4990531;28;20553;-85
2023/11/19 09:14:59;;;;;;;24.27;5.37;;;;;;;;;;4993362;28;20587;-85
2023/11/19 09:17:25;;;;;;;25.77;5.27;;;;;;;;;;4996522;28;20471;-85
2023/11/19 09:19:51;;;;;;;22.57;6.53;;;;;;;;;;4992184;28;20903;-84
2023/11/19 09:22:18;;;;;;;16.07;5.50;;;;;;;;;;4990592;28;20492;-85
2023/11/19 09:24:45;;;;;;;18.50;5.23;;;;;;;;;;4995084;28;20448;-86
2023/11/19 09:27:11;;;;;;;17.93;5.20;;;;;;;;;;4991917;28;20499;-85
2023/11/19 09:29:37;;;;;;;24.73;6.60;;;;;;;;;;4991071;28;20572;-85
2023/11/19 09:32:07;;;;;;;22.43;6.33;;;;;;;;;;4988294;28;20492;-85
2023/11/19 09:34:33;;;;;;;23.37;5.10;;;;;;;;;;4991728;28;20470;-85
2023/11/19 09:37:00;;;;;;;22.60;5.47;;;;;;;;;;4987144;28;20981;-86
2023/11/19 09:39:26;;;;;;;13.27;4.80;;;;;;;;;;4989635;28;20563;-87
2023/11/19 09:41:53;;;;;;;20.90;5.33;;;;;;;;;;4985152;28;20531;-91
2023/11/19 09:44:19;;;;;;;20.93;6.40;;;;;;;;;;4996152;28;20441;-89
2023/11/19 09:46:48;;;;;;;24.93;6.33;;;;;;;;;;4993589;28;20467;-91
2023/11/19 09:49:17;;;;;;;17.53;5.50;;;;;;;;;;4997910;28;20484;-85
2023/11/19 09:51:44;;;;;;;22.07;5.97;;;;;;;;;;4990557;28;20973;-86
2023/11/19 09:54:12;;;;;;;23.73;6.17;;;;;;;;;;4992829;28;20471;-84
2023/11/19 09:56:40;;;;;;;20.40;4.40;;;;;;;;;;4982804;28;20528;-87
2023/11/19 09:59:06;;;;;;;15.73;5.00;;;;;;;;;;4994286;28;20463;-87
2023/11/19 10:01:34;;;;;;;24.77;5.57;;;;;;;;;;4992420;28;20488;-90
2023/11/19 10:04:00;;;;;;;14.70;6.13;;;;;;;;;;4989886;28;20941;-89
2023/11/19 10:06:28;;;;;;;21.13;5.10;;;;;;;;;;4984366;28;20484;-89
2023/11/19 10:08:55;;;;;;;19.07;5.50;;;;;;;;;;4992453;28;20566;-88
2023/11/19 10:11:21;;;;;;;26.50;5.70;;;;;;;;;;4984116;28;20464;-86
2023/11/19 10:13:48;;;;;;;24.33;6.07;;;;;;;;;;4996763;28;20484;-88
2023/11/19 10:16:15;;;;;;;15.50;5.00;;;;;;;;;;4993653;28;20487;-83
2023/11/19 10:18:44;;;;;;;26.97;5.10;;;;;;;;;;4999362;28;20518;-85
2023/11/19 10:21:16;;;;;;;29.97;6.53;;;;;;;;;;4986430;28;20487;-87
2023/11/19 10:23:51;;;;;;;23.77;4.80;;;;;;;;;;4991240;28;20467;-86
2023/11/19 10:26:17;;;;;;;19.73;5.47;;;;;;;;;;4984062;28;20456;-85
2023/11/19 10:28:45;;;;;;;25.63;6.20;;;;;;;;;;4984502;28;20449;-81
2023/11/19 10:31:12;;;;;;;18.03;6.27;;;;;;;;;;4988015;28;20500;-82
2023/11/19 10:33:39;;;;;;;24.53;5.50;;;;;;;;;;4993414;28;20508;-82
2023/11/19 10:36:06;;;;;;;19.50;5.37;;;;;;;;;;4989046;28;20999;-83
2023/11/19 10:38:32;;;;;;;16.53;5.63;;;;;;;;;;4985748;28;20480;-89
2023/11/19 10:41:00;;;;;;;21.00;6.27;;;;;;;;;;4981835;28;20489;-82
2023/11/19 10:43:27;;;;;;;24.13;6.03;;;;;;;;;;4999831;28;20460;-83
2023/11/19 10:45:54;;;;;;;19.40;6.17;;;;;;;;;;4987641;28;20532;-81
2023/11/19 10:48:21;;;;;;;26.60;6.17;;;;;;;;;;4988289;28;20475;-81
2023/11/19 10:50:50;;;;;;;29.33;6.93;;;;;;;;;;4991273;28;20494;-77
2023/11/19 10:53:17;;;;;;;17.10;6.17;;;;;;;;;;4991100;28;20548;-79
2023/11/19 10:55:47;;;;;;;17.50;5.67;;;;;;;;;;4998225;28;20529;-78
2023/11/19 10:58:16;;;;;;;15.13;5.43;;;;;;;;;;4992275;28;20488;-79
2023/11/19 11:00:44;;;;;;;22.80;5.37;;;;;;;;;;4986813;28;20468;-78
2023/11/19 11:03:12;;;;;;;21.97;5.33;;;;;;;;;;4984012;28;20456;-81
2023/11/19 11:05:38;;;;;;;20.97;5.30;;;;;;;;;;4987386;28;20906;-82
2023/11/19 11:08:07;;;;;;;17.23;4.93;;;;;;;;;;4985864;28;20471;-83
2023/11/19 11:10:36;;;;;;;20.33;5.90;;;;;;;;;;4987849;28;20547;-86
2023/11/19 11:13:04;;;;;;;16.37;4.77;;;;;;;;;;4985370;28;20539;-86
2023/11/19 11:15:32;;;;;;;19.40;6.37;;;;;;;;;;4982820;28;20496;-87
2023/11/19 11:18:00;;;;;;;25.03;5.30;;;;;;;;;;4981037;28;20449;-87
2023/11/19 11:20:27;;;;;;;21.20;6.87;;;;;;;;;;4992927;28;20538;-89
2023/11/19 11:22:58;;;;;;;19.90;5.23;;;;;;;;;;4982570;28;20466;-88
2023/11/19 11:25:32;;;;;;;20.10;5.30;;;;;;;;;;4986942;28;20498;-87
2023/11/19 11:28:05;;;;;;;17.63;5.60;;;;;;;;;;4985015;28;20488;-90
2023/11/19 11:30:39;;;;;;;17.67;5.13;;;;;;;;;;4986753;28;20502;-91
2023/11/19 11:33:11;;;;;;;23.57;5.40;;;;;;;;;;4991112;28;20719;-87
2023/11/19 11:35:45;;;;;;;18.67;4.73;;;;;;;;;;5000530;28;20739;-89
2023/11/19 11:38:11;;;;;;;17.23;5.27;;;;;;;;;;4986536;28;20528;-89
2023/11/19 11:40:38;;;;;;;19.57;7.33;;;;;;;;;;4984316;28;20459;-86
2023/11/19 11:43:05;;;;;;;26.07;5.20;;;;;;;;;;4992197;28;20459;-89
2023/11/19 11:45:42;;;;;;;18.50;5.03;;;;;;;;;;4985266;28;20459;-86
2023/11/19 11:48:11;;;;;;;20.50;5.00;;;;;;;;;;4988256;28;20491;-88
2023/11/19 11:50:49;;;;;;;13.80;4.60;;;;;;;;;;4997165;28;20551;-88
2023/11/19 11:53:19;;;;;;;22.33;5.20;;;;;;;;;;4981207;28;20453;-86
2023/11/19 11:55:57;;;;;;;22.10;5.20;;;;;;;;;;4994391;28;20497;-87
2023/11/19 11:58:26;;;;;;;19.83;4.97;;;;;;;;;;4989622;28;20472;-86
2023/11/19 12:00:54;;;;;;;29.50;5.73;;;;;;;;;;4995232;28;21047;-87
2023/11/19 12:03:21;;;;;;;21.57;4.70;;;;;;;;;;4981271;28;20492;-88
2023/11/19 12:05:49;;;;;;;27.67;5.83;;;;;;;;;;4980868;28;21058;-89
2023/11/19 12:08:16;;;;;;;19.40;4.73;;;;;;;;;;4988965;28;20478;-86
2023/11/19 12:10:45;;;;;;;24.70;5.40;;;;;;;;;;4982477;28;20580;-88
2023/11/19 12:13:12;;;;;;;25.83;4.80;;;;;;;;;;4990991;28;20474;-92
2023/11/19 12:16:07;;;;;;;18.83;4.87;;;;;;;;;;4985915;28;20496;-86
2023/11/19 12:18:35;;;;;;;20.00;5.80;;;;;;;;;;4987182;28;20459;-92
2023/11/19 12:21:02;;;;;;;21.53;4.57;;;;;;;;;;4998576;28;20529;-90
2023/11/19 12:23:29;;;;;;;28.03;5.57;;;;;;;;;;4982141;28;20495;-85
2023/11/19 12:25:56;;;;;;;25.80;6.10;;;;;;;;;;4984951;28;20477;-85
2023/11/19 12:28:24;;;;;;;22.03;5.50;;;;;;;;;;4982218;28;20601;-86
2023/11/19 12:30:51;;;;;;;22.83;5.93;;;;;;;;;;4993149;28;21231;-84
2023/11/19 12:33:17;;;;;;;14.17;4.60;;;;;;;;;;5003133;28;20534;-86
2023/11/19 12:35:47;;;;;;;16.43;5.67;;;;;;;;;;4997360;28;20475;-83
2023/11/19 12:38:19;;;;;;;17.60;5.50;;;;;;;;;;4993768;28;20441;-85
2023/11/19 12:40:45;;;;;;;18.10;4.60;;;;;;;;;;4999777;28;20471;-85
2023/11/19 12:43:22;;;;;;;23.63;5.13;;;;;;;;;;4991549;28;20503;-87
2023/11/19 12:45:48;;;;;;;19.23;4.20;;;;;;;;;;4987031;28;20794;-85
2023/11/19 12:48:15;;;;;;;23.17;5.50;;;;;;;;;;4991014;28;20455;-90
2023/11/19 12:50:55;;;;;;;21.00;5.23;;;;;;;;;;4994002;28;20523;-89
2023/11/19 12:53:22;;;;;;;19.07;5.23;;;;;;;;;;5005210;28;20467;-85
2023/11/19 12:55:49;;;;;;;16.20;4.43;;;;;;;;;;4999442;28;20452;-88
2023/11/19 12:58:30;;;;;;;17.13;5.60;;;;;;;;;;4989618;28;20935;-88
2023/11/19 13:01:03;;;;;;;20.57;6.43;;;;;;;;;;4981338;28;20552;-88
2023/11/19 13:03:30;;;;;;;16.20;4.90;;;;;;;;;;4996936;28;20845;-88
2023/11/19 13:06:03;;;;;;;20.10;5.17;;;;;;;;;;4990636;28;20488;-87
2023/11/19 13:08:30;;;;;;;16.10;4.40;;;;;;;;;;4988509;28;20476;-90
2023/11/19 13:10:57;;;;;;;23.63;4.53;;;;;;;;;;4998330;28;20487;-90
2023/11/19 13:13:23;;;;;;;23.93;5.23;;;;;;;;;;4995828;28;20511;-89
2023/11/19 13:15:49;;;;;;;15.87;5.00;;;;;;;;;;4997172;28;21071;-89
2023/11/19 13:18:17;;;;;;;14.20;5.00;;;;;;;;;;4988758;28;20543;-85
2023/11/19 13:20:43;;;;;;;26.50;4.53;;;;;;;;;;4998709;28;20504;-86
2023/11/19 13:23:12;;;;;;;16.30;4.73;;;;;;;;;;5000413;28;20456;-84
2023/11/19 13:25:38;;;;;;;24.63;4.83;;;;;;;;;;4987408;28;20909;-85
2023/11/19 13:28:05;;;;;;;20.73;4.43;;;;;;;;;;4986912;28;20452;-84
2023/11/19 13:30:32;;;;;;;18.60;4.73;;;;;;;;;;5002901;28;20494;-85
2023/11/19 13:33:00;;;;;;;16.33;4.13;;;;;;;;;;4988455;28;20555;-88
2023/11/19 13:35:27;;;;;;;18.47;4.83;;;;;;;;;;4988602;28;20464;-85
2023/11/19 13:37:54;;;;;;;16.20;4.40;;;;;;;;;;4998061;28;20457;-86
2023/11/19 13:40:24;;;;;;;17.40;4.83;;;;;;;;;;4993246;28;20493;-85
2023/11/19 13:42:51;;;;;;;25.43;5.73;;;;;;;;;;4988405;28;20547;-86
2023/11/19 13:45:18;;;;;;;17.73;4.47;;;;;;;;;;4987657;28;20460;-84
2023/11/19 13:47:45;;;;;;;16.63;4.47;;;;;;;;;;4991908;28;20467;-85
2023/11/19 13:50:13;;;;;;;17.63;6.00;;;;;;;;;;4987253;28;20518;-84
2023/11/19 13:52:40;;;;;;;16.83;5.03;;;;;;;;;;4985049;28;20466;-88
2023/11/19 13:55:08;;;;;;;15.00;4.73;;;;;;;;;;4990247;28;20459;-86
2023/11/19 13:57:36;;;;;;;23.63;5.40;;;;;;;;;;4988381;28;21048;-84
2023/11/19 14:00:05;;;;;;;15.97;4.90;;;;;;;;;;4988585;28;20519;-84
2023/11/19 14:02:32;;;;;;;16.47;4.33;;;;;;;;;;4988242;28;20472;-86
2023/11/19 14:04:58;;;;;;;17.10;4.00;;;;;;;;;;4988484;28;20529;-85
2023/11/19 14:07:25;;;;;;;16.23;5.83;;;;;;;;;;4988912;28;20460;-85
2023/11/19 14:09:52;;;;;;;16.20;4.20;;;;;;;;;;4995712;28;20454;-83
2023/11/19 14:12:19;;;;;;;12.07;4.53;;;;;;;;;;4991119;28;20459;-86
2023/11/19 14:14:47;;;;;;;20.23;5.27;;;;;;;;;;4988188;28;20456;-87
2023/11/19 14:17:15;;;;;;;20.10;5.00;;;;;;;;;;4989597;28;20550;-88
2023/11/19 14:19:42;;;;;;;12.27;4.77;;;;;;;;;;4997334;28;20452;-88
2023/11/19 14:22:09;;;;;;;15.07;5.23;;;;;;;;;;4988872;28;20460;-85
2023/11/19 14:24:35;;;;;;;12.07;3.80;;;;;;;;;;4990765;28;20451;-85
2023/11/19 14:27:01;;;;;;;15.27;4.50;;;;;;;;;;4988538;28;20456;-84
2023/11/19 14:29:29;;;;;;;10.10;4.40;;;;;;;;;;4986232;28;20494;-82
2023/11/19 14:31:58;;;;;;;22.97;6.30;;;;;;;;;;4986074;28;20598;-84
2023/11/19 14:34:26;;;;;;;20.93;5.30;;;;;;;;;;4987764;28;21042;-84
2023/11/19 14:36:53;;;;;;;18.20;4.60;;;;;;;;;;4985067;28;21445;-85
2023/11/19 14:39:20;;;;;;;14.07;4.17;;;;;;;;;;4982895;28;20461;-85
2023/11/19 14:41:46;;;;;;;13.97;4.77;;;;;;;;;;4989761;28;20537;-86
2023/11/19 14:44:12;;;;;;;17.93;5.73;;;;;;;;;;4984501;28;20488;-87
2023/11/19 14:46:39;;;;;;;16.43;4.83;;;;;;;;;;4990790;28;20499;-86
2023/11/19 14:49:07;;;;;;;14.17;4.40;;;;;;;;;;4987820;28;20534;-87
2023/11/19 14:51:36;;;;;;;17.03;4.30;;;;;;;;;;4983786;28;20513;-88
2023/11/19 14:54:02;;;;;;;12.33;4.50;;;;;;;;;;4989033;28;20965;-84
2023/11/19 14:56:29;;;;;;;9.40;3.70;;;;;;;;;;4989931;28;20471;-84
2023/11/19 14:58:55;;;;;;;17.33;4.70;;;;;;;;;;4982692;28;20475;-85
2023/11/19 15:01:22;;;;;;;12.27;3.87;;;;;;;;;;4990498;28;20495;-89
2023/11/19 15:03:48;;;;;;;12.43;4.07;;;;;;;;;;4995997;28;20463;-85
2023/11/19 15:06:16;;;;;;;9.87;3.47;;;;;;;;;;4998894;28;21783;-90
2023/11/19 15:08:44;;;;;;;19.20;4.70;;;;;;;;;;4986713;28;20590;-85
2023/11/19 15:11:11;;;;;;;16.77;4.70;;;;;;;;;;4985571;28;20492;-87
2023/11/19 15:13:40;;;;;;;12.80;3.53;;;;;;;;;;4989221;28;20511;-87
2023/11/19 15:16:10;;;;;;;10.43;4.27;;;;;;;;;;4991587;28;20561;-83
2023/11/19 15:18:36;;;;;;;12.47;3.40;;;;;;;;;;4998158;28;20983;-86
2023/11/19 15:21:03;;;;;;;13.60;3.83;;;;;;;;;;4994676;28;20460;-86
2023/11/19 15:23:31;;;;;;;13.10;4.70;;;;;;;;;;4988338;28;20451;-85
2023/11/19 15:25:57;;;;;;;8.73;4.20;;;;;;;;;;4990467;28;20484;-86
2023/11/19 15:28:24;;;;;;;14.67;4.80;;;;;;;;;;5001822;28;20947;-87
2023/11/19 15:30:50;;;;;;;14.57;3.63;;;;;;;;;;4997089;28;20502;-89
2023/11/19 15:33:17;;;;;;;13.40;3.77;;;;;;;;;;4996764;28;20460;-87
2023/11/19 15:35:43;;;;;;;15.70;4.00;;;;;;;;;;4985456;28;20484;-86
2023/11/19 15:38:09;;;;;;;11.27;3.70;;;;;;;;;;4993803;28;20456;-87
2023/11/19 15:40:38;;;;;;;12.07;4.10;;;;;;;;;;4991327;28;20444;-90
2023/11/19 15:43:06;;;;;;;20.13;4.30;;;;;;;;;;4991855;28;20447;-90
2023/11/19 15:45:37;;;;;;;13.37;3.93;;;;;;;;;;4987598;28;20460;-88
2023/11/19 15:48:03;;;;;;;15.20;3.47;;;;;;;;;;4988109;28;20460;-86
2023/11/19 15:50:30;;;;;;;16.43;4.03;;;;;;;;;;4989147;28;20491;-84
2023/11/19 15:52:58;;;;;;;16.70;4.90;;;;;;;;;;4985691;28;20486;-87
2023/11/19 15:55:25;;;;;;;11.60;3.60;;;;;;;;;;4988618;28;20452;-86
2023/11/19 15:57:53;;;;;;;14.50;4.50;;;;;;;;;;4986734;28;20539;-83
2023/11/19 16:00:21;;;;;;;19.03;3.93;;;;;;;;;;4981376;28;20468;-84
2023/11/19 16:02:47;;;;;;;13.57;4.17;;;;;;;;;;4991312;28;20468;-83
2023/11/19 16:05:14;;;;;;;16.37;3.67;;;;;;;;;;4987878;28;20456;-84
2023/11/19 16:07:40;;;;;;;33.17;5.33;;;;;;;;;;4986321;28;20545;-84
2023/11/19 16:10:11;;;;;;;18.00;4.10;;;;;;;;;;4988609;28;20484;-85
2023/11/19 16:12:38;;;;;;;22.50;4.83;;;;;;;;;;4988356;28;20568;-84
2023/11/19 16:15:08;;;;;;;16.13;3.87;;;;;;;;;;4986242;28;20511;-84
2023/11/19 16:17:35;;;;;;;9.30;3.83;;;;;;;;;;4993295;28;20502;-84
2023/11/19 16:20:01;;;;;;;7.10;3.60;;;;;;;;;;4989355;28;20527;-84
2023/11/19 16:22:27;;;;;;;16.37;4.40;;;;;;;;;;4988543;28;20490;-84
2023/11/19 16:24:54;;;;;;;9.27;4.50;;;;;;;;;;4985263;28;20563;-85
2023/11/19 16:27:21;;;;;;;11.07;4.70;;;;;;;;;;4990144;28;20464;-88
2023/11/19 16:29:47;;;;;;;10.83;3.93;;;;;;;;;;4986953;28;20464;-86
2023/11/19 16:32:15;;;;;;;9.50;3.70;;;;;;;;;;4987184;28;20496;-87
2023/11/19 16:34:42;;;;;;;19.17;4.70;;;;;;;;;;4998163;28;20492;-86
2023/11/19 16:37:09;;;;;;;14.63;4.57;;;;;;;;;;4998084;28;20469;-85
2023/11/19 16:39:36;;;;;;;13.13;4.27;;;;;;;;;;4985866;28;20535;-85
2023/11/19 16:42:02;;;;;;;14.13;4.50;;;;;;;;;;4988755;28;20487;-87
2023/11/19 16:44:29;;;;;;;21.10;4.73;;;;;;;;;;4987156;28;20482;-86
2023/11/19 16:46:55;;;;;;;21.77;4.70;;;;;;;;;;4988092;28;20529;-88
2023/11/19 16:49:24;;;;;;;19.30;5.97;;;;;;;;;;4988362;28;20499;-87
2023/11/19 16:51:50;;;;;;;10.80;4.27;;;;;;;;;;4998378;28;20499;-86
2023/11/19 16:54:18;;;;;;;11.83;4.30;;;;;;;;;;4991105;28;21112;-86
2023/11/19 16:56:44;;;;;;;11.60;3.93;;;;;;;;;;4999951;28;20478;-85
2023/11/19 16:59:11;;;;;;;15.20;5.10;;;;;;;;;;4986495;28;20499;-84
2023/11/19 17:01:38;;;;;;;14.27;4.60;;;;;;;;;;4986123;28;20459;-85
2023/11/19 17:04:04;;;;;;;15.60;4.30;;;;;;;;;;4991842;28;20523;-84
2023/11/19 17:06:32;;;;;;;12.83;3.67;;;;;;;;;;4992840;28;20459;-84
2023/11/19 17:08:58;;;;;;;13.53;4.67;;;;;;;;;;4987303;28;20452;-83
2023/11/19 17:11:25;;;;;;;14.70;3.70;;;;;;;;;;4989533;28;21172;-84
2023/11/19 17:13:52;;;;;;;11.83;3.77;;;;;;;;;;4990181;28;20451;-85
2023/11/19 17:16:18;;;;;;;17.57;5.03;;;;;;;;;;4993984;28;20492;-84
2023/11/19 17:18:45;;;;;;;23.70;4.50;;;;;;;;;;4992357;28;20451;-84
2023/11/19 17:21:11;;;;;;;15.10;5.10;;;;;;;;;;5002491;28;20908;-86
2023/11/19 17:23:40;;;;;;;12.53;4.70;;;;;;;;;;4989044;28;20480;-86
2023/11/19 17:26:06;;;;;;;14.10;5.20;;;;;;;;;;4989833;28;20547;-84
2023/11/19 17:28:35;;;;;;;16.03;4.60;;;;;;;;;;5003190;28;20530;-84
2023/11/19 17:31:01;;;;;;;15.80;4.13;;;;;;;;;;4994803;28;20468;-85
2023/11/19 17:33:28;;;;;;;17.90;4.30;;;;;;;;;;4999762;28;21038;-84
2023/11/19 17:35:56;;;;;;;14.03;4.90;;;;;;;;;;4987933;28;20470;-84
2023/11/19 17:38:25;;;;;;;17.47;4.80;;;;;;;;;;4990544;28;20463;-85
2023/11/19 17:40:54;;;;;;;16.10;5.50;;;;;;;;;;4996809;28;20475;-85
2023/11/19 17:43:20;;;;;;;6.50;3.30;;;;;;;;;;4987715;28;20456;-86
2023/11/19 17:45:47;;;;;;;13.90;4.53;;;;;;;;;;4990586;28;20550;-84
2023/11/19 17:48:13;;;;;;;21.30;3.83;;;;;;;;;;4987184;28;20514;-86
2023/11/19 17:50:39;;;;;;;9.43;4.03;;;;;;;;;;4990989;28;20607;-87
2023/11/19 17:53:06;;;;;;;20.47;4.23;;;;;;;;;;4998842;28;20515;-87
2023/11/19 17:55:32;;;;;;;13.60;3.57;;;;;;;;;;5003576;28;20451;-86
2023/11/19 17:58:00;;;;;;;9.70;3.70;;;;;;;;;;4985298;28;20555;-85
2023/11/19 18:00:27;;;;;;;12.93;3.93;;;;;;;;;;4997111;28;20464;-86
2023/11/19 18:02:54;;;;;;;9.77;3.83;;;;;;;;;;4992104;28;20474;-86
2023/11/19 18:05:21;;;;;;;12.80;4.20;;;;;;;;;;4995986;28;20525;-87
2023/11/19 18:07:47;;;;;;;7.17;4.10;;;;;;;;;;4991590;28;20499;-86
2023/11/19 18:10:14;;;;;;;18.43;4.90;;;;;;;;;;4984874;28;20461;-84
2023/11/19 18:12:41;;;;;;;16.67;4.83;;;;;;;;;;4988424;28;20518;-84
2023/11/19 18:15:12;;;;;;;13.57;5.60;;;;;;;;;;4994053;28;20500;-84
2023/11/19 18:17:41;;;;;;;16.77;4.80;;;;;;;;;;4989634;28;20504;-86
2023/11/19 18:20:11;;;;;;;13.70;5.53;;;;;;;;;;4982937;28;20465;-84
2023/11/19 18:22:38;;;;;;;10.27;5.57;;;;;;;;;;4994423;28;20469;-85
2023/11/19 18:25:04;;;;;;;10.43;5.00;;;;;;;;;;4984261;28;20495;-85
2023/11/19 18:27:32;;;;;;;17.03;5.57;;;;;;;;;;4993382;28;20458;-86
2023/11/19 18:29:58;;;;;;;13.70;5.40;;;;;;;;;;4993031;28;20464;-85
2023/11/19 18:32:26;;;;;;;13.10;5.07;;;;;;;;;;4991413;28;20923;-82
2023/11/19 18:34:52;;;;;;;18.03;5.20;;;;;;;;;;4988678;28;20506;-82
2023/11/19 18:37:19;;;;;;;12.90;5.50;;;;;;;;;;4995167;28;20452;-80
2023/11/19 18:39:45;;;;;;;14.93;4.80;;;;;;;;;;4987930;28;20456;-81
2023/11/19 18:42:12;;;;;;;14.63;5.00;;;;;;;;;;4986598;28;20460;-81
2023/11/19 18:44:39;;;;;;;13.73;5.50;;;;;;;;;;4990117;28;20491;-85
2023/11/19 18:47:06;;;;;;;14.27;4.97;;;;;;;;;;4986023;28;20468;-83
2023/11/19 18:49:34;;;;;;;13.67;5.33;;;;;;;;;;4988957;28;20440;-83
2023/11/19 18:52:01;;;;;;;21.77;6.00;;;;;;;;;;4987323;28;21080;-83
2023/11/19 18:54:27;;;;;;;14.37;6.60;;;;;;;;;;4981772;28;20870;-84
2023/11/19 18:56:56;;;;;;;10.40;4.93;;;;;;;;;;4990460;28;20877;-83
2023/11/19 18:59:23;;;;;;;17.53;6.13;;;;;;;;;;4990562;28;20514;-83
2023/11/19 19:01:49;;;;;;;15.60;5.33;;;;;;;;;;4988163;28;20532;-85
2023/11/19 19:04:18;;;;;;;17.33;5.53;;;;;;;;;;4984459;28;20511;-83
2023/11/19 19:06:48;;;;;;;20.10;5.53;;;;;;;;;;4985502;28;20452;-85
2023/11/19 19:09:18;;;;;;;13.17;5.43;;;;;;;;;;4990223;28;20462;-85
2023/11/19 19:11:44;;;;;;;9.60;5.23;;;;;;;;;;4991005;28;20460;-85
2023/11/19 19:14:11;;;;;;;9.20;5.93;;;;;;;;;;4982099;28;20468;-83
2023/11/19 19:16:40;;;;;;;13.67;5.70;;;;;;;;;;4992525;28;20495;-83
2023/11/19 19:19:06;;;;;;;11.47;5.03;;;;;;;;;;4991445;28;20479;-83
2023/11/19 19:21:34;;;;;;;9.17;4.73;;;;;;;;;;4990290;28;20452;-84
2023/11/19 19:24:03;;;;;;;14.33;5.23;;;;;;;;;;4989710;28;20460;-81
2023/11/19 19:26:30;;;;;;;14.37;5.87;;;;;;;;;;4989957;28;20487;-82
2023/11/19 19:28:56;;;;;;;10.90;5.00;;;;;;;;;;4982139;28;20453;-82
2023/11/19 19:31:24;;;;;;;8.97;4.67;;;;;;;;;;4982980;28;20468;-84
2023/11/19 19:33:57;;;;;;;11.03;4.40;;;;;;;;;;4989572;28;20985;-87
2023/11/19 19:36:24;;;;;;;7.70;4.77;;;;;;;;;;4996108;28;20464;-86
2023/11/19 19:38:50;;;;;;;10.13;4.73;;;;;;;;;;4991160;28;20452;-85
2023/11/19 19:41:18;;;;;;;15.33;5.40;;;;;;;;;;4998783;28;20989;-87
2023/11/19 19:43:45;;;;;;;8.63;5.57;;;;;;;;;;4987225;28;20500;-87
2023/11/19 19:46:11;;;;;;;11.40;5.50;;;;;;;;;;4992612;28;20960;-86
2023/11/19 19:48:38;;;;;;;15.20;5.80;;;;;;;;;;4989192;28;20483;-86
2023/11/19 19:51:07;;;;;;;9.67;6.20;;;;;;;;;;4993661;28;20456;-85
2023/11/19 19:53:35;;;;;;;10.20;4.50;;;;;;;;;;4995369;28;20514;-85
2023/11/19 19:56:02;;;;;;;7.03;4.60;;;;;;;;;;4998221;28;20462;-83
2023/11/19 19:58:29;;;;;;;10.17;4.77;;;;;;;;;;5003179;28;20528;-84
2023/11/19 20:00:56;;;;;;;9.30;5.70;;;;;;;;;;4992193;28;20461;-84
2023/11/19 20:03:22;;;;;;;7.30;4.70;;;;;;;;;;4990993;28;20453;-85
2023/11/19 20:05:49;;;;;;;7.43;4.07;;;;;;;;;;4993585;28;20452;-84
2023/11/19 20:08:15;;;;;;;7.70;4.03;;;;;;;;;;4998701;28;20507;-84
2023/11/19 20:10:42;;;;;;;4.03;3.40;;;;;;;;;;4995970;28;20456;-85
2023/11/19 20:13:10;;;;;;;8.30;5.13;;;;;;;;;;4988847;28;20488;-83
2023/11/19 20:15:38;;;;;;;6.27;4.43;;;;;;;;;;4986937;28;20488;-83
2023/11/19 20:18:05;;;;;;;6.70;3.70;;;;;;;;;;4986441;28;20460;-84
2023/11/19 20:20:32;;;;;;;5.60;4.33;;;;;;;;;;4984262;28;20465;-83
2023/11/19 20:22:59;;;;;;;9.43;4.20;;;;;;;;;;4982105;28;20452;-84
2023/11/19 20:25:26;;;;;;;7.63;3.60;;;;;;;;;;4983745;28;20464;-83
2023/11/19 20:27:54;;;;;;;7.00;3.77;;;;;;;;;;5003969;28;20466;-84
2023/11/19 20:30:20;;;;;;;7.73;3.80;;;;;;;;;;4988204;28;20467;-84
2023/11/19 20:32:48;;;;;;;10.90;4.57;;;;;;;;;;4990446;28;20496;-83
2023/11/19 20:35:15;;;;;;;4.13;3.73;;;;;;;;;;4993270;28;20452;-84
2023/11/19 20:37:41;;;;;;;11.50;4.80;;;;;;;;;;4988455;28;20457;-83
2023/11/19 20:40:08;;;;;;;10.63;4.63;;;;;;;;;;4991853;28;20456;-84
2023/11/19 20:42:36;;;;;;;7.23;4.97;;;;;;;;;;4984784;28;22479;-85
2023/11/19 20:45:04;;;;;;;11.30;5.17;;;;;;;;;;4986984;28;20457;-85
2023/11/19 20:47:33;;;;;;;7.67;5.07;;;;;;;;;;4991414;28;20487;-83
2023/11/19 20:50:02;;;;;;;8.53;4.53;;;;;;;;;;4987323;28;20524;-84
2023/11/19 20:52:29;;;;;;;9.27;4.73;;;;;;;;;;4994394;28;20518;-84
2023/11/19 20:54:56;;;;;;;8.47;4.70;;;;;;;;;;4992285;28;20969;-83
2023/11/19 20:57:22;;;;;;;10.30;4.30;;;;;;;;;;4991655;28;20467;-83
2023/11/19 20:59:49;;;;;;;12.37;5.20;;;;;;;;;;4988522;28;20456;-82
2023/11/19 21:02:15;;;;;;;8.70;4.40;;;;;;;;;;4994992;28;20468;-84
2023/11/19 21:04:42;;;;;;;8.87;4.23;;;;;;;;;;4982876;28;20506;-86
2023/11/19 21:07:10;;;;;;;9.93;4.20;;;;;;;;;;4992098;28;20524;-85
2023/11/19 21:09:37;;;;;;;4.53;3.30;;;;;;;;;;4989093;28;20811;-84
2023/11/19 21:12:04;;;;;;;5.23;2.90;;;;;;;;;;4990240;28;21035;-84
2023/11/19 21:14:32;;;;;;;5.80;2.80;;;;;;;;;;4990581;28;20499;-85
2023/11/19 21:16:58;;;;;;;6.83;3.40;;;;;;;;;;4992157;28;20496;-84
2023/11/19 21:19:25;;;;;;;7.10;3.10;;;;;;;;;;4984160;28;20491;-84
2023/11/19 21:21:52;;;;;;;5.47;2.60;;;;;;;;;;4995677;28;20464;-84
2023/11/19 21:24:20;;;;;;;5.93;2.30;;;;;;;;;;4999965;28;20469;-84
2023/11/19 21:26:49;;;;;;;9.60;2.60;;;;;;;;;;4988308;28;20464;-85
2023/11/19 21:29:15;;;;;;;2.87;2.57;;;;;;;;;;4992114;28;20486;-85
2023/11/19 21:31:42;;;;;;;3.90;3.20;;;;;;;;;;4990223;28;20578;-84